Hauptseite
METAR-TAF:

METAR-TAF

Flughäfen :

Flughafen Groningen

Groningen, Niederlande

Breite: 53-08N, Länge: 006-35E, Höhe: 4 m

Beobachtung

Neuester Wetterbericht von vor 24 Minuten, um 02:25 UTC
Wind 3 kt aus Südwest
Temperatur 10°C
Luftfeuchtigkeit 93%
Luftdruck 1017 hPa
Sichtweite: 1300 m
feuchter Dunst

METAR: EHGG 180225Z AUTO 22003KT 1300 R23/1800N BR NCD 10/09 Q1017

Zeit: 04:49 (02:49 UTC)

Prognose

Neuester Wetterbericht von vor 3 Stunden und 38 Minuten, um 23:11 UTC
Gültige Prognose vom 18 um 00 UTC bis 19 um 06 UTC
Wind 5 kt aus West
Sichtweite 10 km oder mehr
keine Wolken unter 1500 m und keine Kumulonimbus oder Gewitterwolken
Wahrscheinlichkeit 30%
vom 18 um 02 UTC bis 18 um 05 UTC
Sichtweite: 3000 m
Flacher Nebel

TAF: EHGG 172311Z 1800/1906 27005KT CAVOK PROB30 1802/1805 3000 MIFG

Wetterbeobachtungen und Prognosen von mehr als 4000 Flughäfen (METAR und TAF Bericht).

Die verfügbaren Stationen werden durch gelbe und rote Markierungen auf der Karte dargestellt.

Führen Sie die Maus auf sie, um den Namen der Station zu sehen.

Darauf klicken, um die Beobachtung von Wetterbeobachtungen und Prognosen zu sehen.

Um die Karte zu ändern : klicken Sie auf den grünen Tasten mit einem schwarzen Kreuz Zum Vergrößern, auf den grünen Button mit einem Gedankenstrich zu verkleinern, oder auf die grünen Pfeile für benachbarte Karten.


METAR-TAF: